createdAt,value
2022-10-22T00:00:44.340Z,0.00
2022-10-22T00:01:46.518Z,0.00
2022-10-22T00:02:46.774Z,0.00
2022-10-22T00:03:46.881Z,0.00
2022-10-22T00:04:47.038Z,0.00
2022-10-22T00:05:47.709Z,0.00
2022-10-22T00:06:47.931Z,0.00
2022-10-22T00:07:48.103Z,0.00
2022-10-22T00:08:48.388Z,0.00
2022-10-22T00:09:48.968Z,0.00
2022-10-22T00:10:47.392Z,0.00
2022-10-22T00:11:49.569Z,0.00
2022-10-22T00:12:47.954Z,0.00
2022-10-22T00:13:50.109Z,0.00
2022-10-22T00:14:50.307Z,0.00
2022-10-22T00:15:50.501Z,0.00
2022-10-22T00:16:50.710Z,0.00
2022-10-22T00:17:51.372Z,0.00
2022-10-22T00:18:49.761Z,0.00
2022-10-22T00:19:50.050Z,0.00
2022-10-22T00:20:50.361Z,0.00
2022-10-22T00:21:52.559Z,0.00
2022-10-22T00:23:51.261Z,0.00
2022-10-22T00:24:51.587Z,0.00
2022-10-22T00:25:51.888Z,0.00
2022-10-22T00:26:54.074Z,0.00
2022-10-22T00:27:54.254Z,0.00
2022-10-22T00:28:52.776Z,0.00
2022-10-22T00:29:53.063Z,0.00
2022-10-22T00:30:53.385Z,0.00
2022-10-22T00:32:53.991Z,0.00
2022-10-22T00:33:56.176Z,0.00
2022-10-22T00:34:56.358Z,0.00
2022-10-22T00:35:56.537Z,0.00
2022-10-22T00:36:56.691Z,0.00
2022-10-22T00:37:57.389Z,0.00
2022-10-22T00:38:57.575Z,0.00
2022-10-22T00:39:57.746Z,0.00
2022-10-22T00:40:57.961Z,0.00
2022-10-22T00:41:59.549Z,0.00
2022-10-22T00:42:58.794Z,0.00
2022-10-22T00:43:58.935Z,0.00
2022-10-22T00:44:59.128Z,0.00
2022-10-22T00:45:59.800Z,0.00
2022-10-22T00:47:01.535Z,0.00
2022-10-22T00:47:58.447Z,0.00
2022-10-22T00:49:00.632Z,0.00
2022-10-22T00:50:00.830Z,0.00
2022-10-22T00:51:00.973Z,0.00
2022-10-22T00:52:02.131Z,0.00
2022-10-22T00:52:59.915Z,0.00
2022-10-22T00:54:02.066Z,0.00
2022-10-22T00:55:02.250Z,0.00
2022-10-22T00:56:02.449Z,0.00
2022-10-22T00:57:01.870Z,0.00
2022-10-22T00:58:03.295Z,0.00
2022-10-22T00:59:01.760Z,0.00
2022-10-22T01:00:03.887Z,0.00
2022-10-22T01:01:04.126Z,0.00
2022-10-22T01:02:02.551Z,0.00
2022-10-22T01:03:02.739Z,0.00
2022-10-22T01:04:05.877Z,0.00
2022-10-22T01:05:03.338Z,0.00
2022-10-22T01:06:05.517Z,0.00
2022-10-22T01:07:04.743Z,0.00
2022-10-22T01:08:06.083Z,0.00
2022-10-22T01:09:04.538Z,0.00
2022-10-22T01:10:04.749Z,0.00
2022-10-22T01:11:06.984Z,0.00
2022-10-22T01:12:05.292Z,0.00
2022-10-22T01:13:05.590Z,0.00
2022-10-22T01:14:07.783Z,0.00
2022-10-22T01:15:06.205Z,0.00
2022-10-22T01:16:08.401Z,0.00
2022-10-22T01:17:06.790Z,0.00
2022-10-22T01:18:08.982Z,0.00
2022-10-22T01:19:07.360Z,0.00
2022-10-22T01:20:09.553Z,0.00
2022-10-22T01:21:09.746Z,0.00
2022-10-22T01:22:08.314Z,0.00
2022-10-22T01:23:10.524Z,0.00
2022-10-22T01:24:08.816Z,0.00
2022-10-22T01:25:09.927Z,0.00
2022-10-22T01:26:11.351Z,0.00
2022-10-22T01:27:10.506Z,0.00
2022-10-22T01:28:11.797Z,0.00
2022-10-22T01:29:10.179Z,0.00
2022-10-22T01:30:10.517Z,0.00
2022-10-22T01:31:12.686Z,0.00
2022-10-22T01:32:13.846Z,0.00
2022-10-22T01:33:13.080Z,0.00
2022-10-22T01:34:11.489Z,0.00
2022-10-22T01:35:11.813Z,0.00
2022-10-22T01:36:12.156Z,0.00
2022-10-22T01:37:15.842Z,0.00
2022-10-22T01:38:14.575Z,0.00
2022-10-22T01:39:12.970Z,0.00
2022-10-22T01:40:13.286Z,0.00
2022-10-22T01:41:13.615Z,0.00
2022-10-22T01:42:15.797Z,0.00
2022-10-22T01:43:14.196Z,0.00
2022-10-22T01:44:14.522Z,0.00
2022-10-22T01:45:14.852Z,0.00
2022-10-22T01:46:15.157Z,0.00
2022-10-22T01:47:18.801Z,0.00
2022-10-22T01:48:17.525Z,0.00
2022-10-22T01:49:16.086Z,0.00
2022-10-22T01:50:16.382Z,0.00
2022-10-22T01:51:16.699Z,0.00
2022-10-22T01:52:20.372Z,0.00
2022-10-22T01:53:19.120Z,0.00
2022-10-22T01:54:19.292Z,0.00
2022-10-22T01:55:19.454Z,0.00
2022-10-22T01:56:19.630Z,0.00
2022-10-22T01:57:21.347Z,0.00
2022-10-22T01:58:20.583Z,0.00
2022-10-22T01:59:20.772Z,0.00
2022-10-22T02:00:19.292Z,0.00
2022-10-22T02:01:21.479Z,0.00
2022-10-22T02:02:19.879Z,0.00
2022-10-22T02:03:23.721Z,0.00
2022-10-22T02:04:20.510Z,0.00
2022-10-22T02:05:20.822Z,0.00
2022-10-22T02:06:21.156Z,0.00
2022-10-22T02:07:24.829Z,0.00
2022-10-22T02:08:23.551Z,0.00
2022-10-22T02:09:22.077Z,0.00
2022-10-22T02:10:24.269Z,0.00
2022-10-22T02:11:22.660Z,0.00
2022-10-22T02:12:26.296Z,0.00
2022-10-22T02:13:25.031Z,0.00
2022-10-22T02:14:25.202Z,0.00
2022-10-22T02:15:25.362Z,0.00
2022-10-22T02:16:26.047Z,0.00
2022-10-22T02:17:27.696Z,0.00
2022-10-22T02:18:26.441Z,0.00
2022-10-22T02:19:26.617Z,0.00
2022-10-22T02:20:26.776Z,0.00
2022-10-22T02:21:27.470Z,0.00
2022-10-22T02:22:27.674Z,0.00
2022-10-22T02:23:27.848Z,0.00
2022-10-22T02:24:28.036Z,0.00
2022-10-22T02:25:26.809Z,0.00
2022-10-22T02:26:27.106Z,0.00
2022-10-22T02:27:30.267Z,0.00
2022-10-22T02:28:29.495Z,0.00
2022-10-22T02:29:29.687Z,0.00
2022-10-22T02:30:30.903Z,0.00
2022-10-22T02:31:30.555Z,0.00
2022-10-22T02:32:29.652Z,0.00
2022-10-22T02:33:29.062Z,0.00
2022-10-22T02:34:31.236Z,0.00
2022-10-22T02:35:29.642Z,0.00
2022-10-22T02:36:31.824Z,0.00
2022-10-22T02:37:33.030Z,0.00
2022-10-22T02:38:30.548Z,0.00
2022-10-22T02:39:32.768Z,0.00
2022-10-22T02:40:31.169Z,0.00
2022-10-22T02:41:31.488Z,0.00
2022-10-22T02:42:36.160Z,0.00
2022-10-22T02:43:33.878Z,0.00
2022-10-22T02:44:34.059Z,0.00
2022-10-22T02:45:34.237Z,0.00
2022-10-22T02:46:34.943Z,0.00
2022-10-22T02:47:36.094Z,0.00
2022-10-22T02:48:33.627Z,0.00
2022-10-22T02:49:35.800Z,0.00
2022-10-22T02:50:34.201Z,0.00
2022-10-22T02:51:36.481Z,0.00
2022-10-22T02:52:38.412Z,0.00
2022-10-22T02:53:34.962Z,0.00
2022-10-22T02:54:37.149Z,0.00
2022-10-22T02:55:35.531Z,0.00
2022-10-22T02:56:38.709Z,0.00
2022-10-22T02:57:37.147Z,0.00
2022-10-22T02:58:36.387Z,0.00
2022-10-22T02:59:38.551Z,0.00
2022-10-22T03:00:37.035Z,0.00
2022-10-22T03:01:37.234Z,0.00
2022-10-22T03:02:38.558Z,0.00
2022-10-22T03:03:37.825Z,0.00
2022-10-22T03:04:40.010Z,0.00
2022-10-22T03:05:38.414Z,0.00
2022-10-22T03:06:38.723Z,0.00
2022-10-22T03:07:40.081Z,0.00
2022-10-22T03:08:39.341Z,0.00
2022-10-22T03:09:41.473Z,0.00
2022-10-22T03:10:39.879Z,0.00
2022-10-22T03:11:40.195Z,0.00
2022-10-22T03:12:41.510Z,0.00
2022-10-22T03:13:40.761Z,0.00
2022-10-22T03:14:42.936Z,0.00
2022-10-22T03:15:41.310Z,0.00
2022-10-22T03:16:41.616Z,0.00
2022-10-22T03:17:43.807Z,0.00
2022-10-22T03:18:43.156Z,0.00
2022-10-22T03:19:42.518Z,0.00
2022-10-22T03:20:44.757Z,0.00
2022-10-22T03:21:44.098Z,0.00
2022-10-22T03:22:45.346Z,0.00
2022-10-22T03:23:45.514Z,0.00
2022-10-22T03:24:45.704Z,0.00
2022-10-22T03:25:44.326Z,0.00
2022-10-22T03:26:44.675Z,0.00
2022-10-22T03:27:48.321Z,0.00
2022-10-22T03:28:47.007Z,0.00
2022-10-22T03:29:47.185Z,0.00
2022-10-22T03:30:47.350Z,0.00
2022-10-22T03:31:46.033Z,0.00
2022-10-22T03:32:46.263Z,0.00
2022-10-22T03:33:48.446Z,0.00
2022-10-22T03:34:48.683Z,0.00
2022-10-22T03:35:47.227Z,0.00
2022-10-22T03:36:49.418Z,0.00
2022-10-22T03:37:49.622Z,0.00
2022-10-22T03:38:48.041Z,0.00
2022-10-22T03:39:48.377Z,0.00
2022-10-22T03:40:50.561Z,0.00
2022-10-22T03:41:48.971Z,0.00
2022-10-22T03:42:51.148Z,0.00
2022-10-22T03:43:49.579Z,0.00
2022-10-22T03:44:49.804Z,0.00
2022-10-22T03:45:51.979Z,0.00
2022-10-22T03:46:50.389Z,0.00
2022-10-22T03:47:52.572Z,0.00
2022-10-22T03:48:52.759Z,0.00
2022-10-22T03:49:53.929Z,0.00
2022-10-22T03:50:53.590Z,0.00
2022-10-22T03:51:51.892Z,0.00
2022-10-22T03:52:54.071Z,0.00
2022-10-22T03:53:54.229Z,0.00
2022-10-22T03:54:54.393Z,0.00
2022-10-22T03:55:54.575Z,0.00
2022-10-22T03:56:54.242Z,0.00
2022-10-22T03:57:55.415Z,0.00
2022-10-22T03:58:55.648Z,0.00
2022-10-22T03:59:55.795Z,0.00
2022-10-22T04:00:56.062Z,0.00
2022-10-22T04:01:54.586Z,0.00
2022-10-22T04:02:56.794Z,0.00
2022-10-22T04:03:55.149Z,0.00
2022-10-22T04:04:57.356Z,0.00
2022-10-22T04:05:57.494Z,0.00
2022-10-22T04:06:57.653Z,0.00
2022-10-22T04:07:56.230Z,0.00
2022-10-22T04:08:56.497Z,0.00
2022-10-22T04:10:00.098Z,0.00
2022-10-22T04:10:58.827Z,0.00
2022-10-22T04:11:57.270Z,0.00
2022-10-22T04:12:59.416Z,0.00
2022-10-22T04:13:57.724Z,0.00
2022-10-22T04:14:59.941Z,0.00
2022-10-22T04:16:00.114Z,0.00
2022-10-22T04:16:58.666Z,0.00
2022-10-22T04:18:00.820Z,0.00
2022-10-22T04:18:59.235Z,0.00
2022-10-22T04:20:01.423Z,0.00
2022-10-22T04:21:01.596Z,0.00
2022-10-22T04:22:01.804Z,0.00
2022-10-22T04:23:02.496Z,0.00
2022-10-22T04:24:02.676Z,0.00
2022-10-22T04:25:02.861Z,0.00
2022-10-22T04:26:03.035Z,0.00
2022-10-22T04:27:03.224Z,0.00
2022-10-22T04:28:03.898Z,0.00
2022-10-22T04:29:04.089Z,0.00
2022-10-22T04:30:04.266Z,0.00
2022-10-22T04:31:02.920Z,0.00
2022-10-22T04:32:05.101Z,0.00
2022-10-22T04:33:05.288Z,0.00
2022-10-22T04:34:05.459Z,0.00
2022-10-22T04:35:04.209Z,0.00
2022-10-22T04:36:06.357Z,0.00
2022-10-22T04:37:04.679Z,0.00
2022-10-22T04:38:04.892Z,0.00
2022-10-22T04:39:05.129Z,0.00
2022-10-22T04:40:05.372Z,0.00
2022-10-22T04:41:05.616Z,0.00
2022-10-22T04:42:07.807Z,0.00
2022-10-22T04:43:06.112Z,0.00
2022-10-22T04:44:12.220Z,0.00
2022-10-22T04:45:07.674Z,0.00
2022-10-22T04:46:06.947Z,0.00
2022-10-22T04:47:07.193Z,0.00
2022-10-22T04:48:07.525Z,0.00
2022-10-22T04:49:07.759Z,0.00
2022-10-22T04:50:09.954Z,0.00
2022-10-22T04:51:10.125Z,0.00
2022-10-22T04:52:08.548Z,0.00
2022-10-22T04:53:10.725Z,0.00
2022-10-22T04:54:10.895Z,0.00
2022-10-22T04:55:09.324Z,0.00
2022-10-22T04:56:11.524Z,0.00
2022-10-22T04:57:09.834Z,0.00
2022-10-22T04:58:12.005Z,0.00
2022-10-22T04:59:12.188Z,0.00
2022-10-22T05:00:12.394Z,0.00
2022-10-22T05:01:12.655Z,0.00
2022-10-22T05:02:11.201Z,0.00
2022-10-22T05:03:11.446Z,0.00
2022-10-22T05:04:14.585Z,0.00
2022-10-22T05:05:14.756Z,0.00
2022-10-22T05:07:12.602Z,0.00
2022-10-22T05:08:12.935Z,0.00
2022-10-22T05:09:15.210Z,0.00
2022-10-22T05:10:13.497Z,0.00
2022-10-22T05:11:13.714Z,0.00
2022-10-22T05:12:14.053Z,0.00
2022-10-22T05:13:14.292Z,0.00
2022-10-22T05:14:16.464Z,0.00
2022-10-22T05:15:16.668Z,0.00
2022-10-22T05:16:15.074Z,0.00
2022-10-22T05:17:17.264Z,0.00
2022-10-22T05:18:19.069Z,0.00
2022-10-22T05:19:15.925Z,0.00
2022-10-22T05:20:18.104Z,0.00
2022-10-22T05:21:16.416Z,0.00
2022-10-22T05:22:18.595Z,0.00
2022-10-22T05:23:16.901Z,0.00
2022-10-22T05:24:18.191Z,0.00
2022-10-22T05:25:18.542Z,0.00
2022-10-22T05:26:19.763Z,0.00
2022-10-22T05:28:18.507Z,0.00
2022-10-22T05:29:19.535Z,0.00
2022-10-22T05:30:19.068Z,0.00
2022-10-22T05:31:21.253Z,0.00
2022-10-22T05:32:21.442Z,4.00
2022-10-22T05:33:24.020Z,4.00
2022-10-22T05:34:20.267Z,4.00
2022-10-22T05:35:20.623Z,4.00
2022-10-22T05:36:22.789Z,4.00
2022-10-22T05:37:22.979Z,8.00
2022-10-22T05:38:23.162Z,4.00
2022-10-22T05:39:21.709Z,8.00
2022-10-22T05:40:30.555Z,8.00
2022-10-22T05:41:23.360Z,8.00
2022-10-22T05:42:22.610Z,12.00
2022-10-22T05:43:24.777Z,16.00
2022-10-22T05:44:23.080Z,16.00
2022-10-22T05:45:23.312Z,24.00
2022-10-22T05:46:23.537Z,24.00
2022-10-22T05:47:23.791Z,28.00
2022-10-22T05:48:26.014Z,32.00
2022-10-22T05:49:26.131Z,40.00
2022-10-22T05:50:24.551Z,44.00
2022-10-22T05:51:24.790Z,52.00
2022-10-22T05:52:25.023Z,60.00
2022-10-22T05:53:27.202Z,68.00
2022-10-22T05:54:27.404Z,72.00
2022-10-22T05:55:27.597Z,84.00
2022-10-22T05:56:27.770Z,88.00
2022-10-22T05:57:27.956Z,104.00
2022-10-22T05:58:28.631Z,116.00
2022-10-22T05:59:28.812Z,128.00
2022-10-22T06:00:27.387Z,144.00
2022-10-22T06:01:29.582Z,156.00
2022-10-22T06:02:27.950Z,176.00
2022-10-22T06:03:30.085Z,188.00
2022-10-22T06:04:30.262Z,208.00
2022-10-22T06:05:28.701Z,220.00
2022-10-22T06:06:28.955Z,252.00
2022-10-22T06:07:31.138Z,284.00
2022-10-22T06:08:31.369Z,312.00
2022-10-22T06:09:31.577Z,344.00
2022-10-22T06:10:30.005Z,380.00
2022-10-22T06:11:34.115Z,408.00
2022-10-22T06:12:31.547Z,424.00
2022-10-22T06:13:32.730Z,460.00
2022-10-22T06:14:32.907Z,524.00
2022-10-22T06:15:31.355Z,576.00
2022-10-22T06:16:31.609Z,600.00
2022-10-22T06:17:31.887Z,624.00
2022-10-22T06:18:32.137Z,676.00
2022-10-22T06:19:34.317Z,724.00
2022-10-22T06:20:32.619Z,728.00
2022-10-22T06:21:32.899Z,772.00
2022-10-22T06:22:33.129Z,820.00
2022-10-22T06:23:35.341Z,864.00
2022-10-22T06:24:33.642Z,912.00
2022-10-22T06:25:33.898Z,988.00
2022-10-22T06:26:36.104Z,1088.00
2022-10-22T06:27:36.291Z,1160.00
2022-10-22T06:28:36.474Z,1252.00
2022-10-22T06:29:36.657Z,1348.00
2022-10-22T06:30:37.327Z,1404.00
2022-10-22T06:31:36.652Z,1440.00
2022-10-22T06:32:38.098Z,1456.00
2022-10-22T06:33:38.031Z,1452.00
2022-10-22T06:34:38.195Z,1484.00
2022-10-22T06:35:38.383Z,1564.00
2022-10-22T06:36:39.072Z,1688.00
2022-10-22T06:37:39.498Z,1748.00
2022-10-22T06:38:39.453Z,1844.00
2022-10-22T06:39:39.612Z,1928.00
2022-10-22T06:40:38.354Z,2064.00
2022-10-22T06:41:38.614Z,2140.00
2022-10-22T06:42:39.103Z,2216.00
2022-10-22T06:43:41.041Z,2292.00
2022-10-22T06:44:41.202Z,2280.00
2022-10-22T06:45:39.695Z,2260.00
2022-10-22T06:46:43.365Z,2248.00
2022-10-22T06:47:40.393Z,2256.00
2022-10-22T06:48:42.335Z,2276.00
2022-10-22T06:49:42.520Z,2284.00
2022-10-22T06:50:42.705Z,2228.00
2022-10-22T06:51:43.379Z,2236.00
2022-10-22T06:52:41.641Z,2276.00
2022-10-22T06:53:43.824Z,2420.00
2022-10-22T06:54:44.001Z,2620.00
2022-10-22T06:55:44.202Z,2820.00
2022-10-22T06:56:44.438Z,2972.00
2022-10-22T06:57:44.595Z,3096.00
2022-10-22T06:58:44.785Z,3224.00
2022-10-22T06:59:45.461Z,3376.00
2022-10-22T07:00:45.624Z,3544.00
2022-10-22T07:01:44.258Z,3660.00
2022-10-22T07:02:46.371Z,3748.00
2022-10-22T07:03:44.705Z,3836.00
2022-10-22T07:04:46.892Z,3948.00
2022-10-22T07:05:47.064Z,4032.00
2022-10-22T07:06:47.225Z,4116.00
2022-10-22T07:07:48.857Z,4204.00
2022-10-22T07:08:46.202Z,4272.00
2022-10-22T07:09:48.233Z,4344.00
2022-10-22T07:10:49.368Z,4400.00
2022-10-22T07:11:47.875Z,4492.00
2022-10-22T07:12:47.186Z,4548.00
2022-10-22T07:13:47.417Z,4620.00
2022-10-22T07:14:47.653Z,4696.00
2022-10-22T07:15:49.822Z,4744.00
2022-10-22T07:16:48.169Z,4824.00
2022-10-22T07:17:48.413Z,4824.00
2022-10-22T07:18:48.642Z,4884.00
2022-10-22T07:19:51.359Z,4884.00
2022-10-22T07:20:50.992Z,4984.00
2022-10-22T07:21:50.287Z,5040.00
2022-10-22T07:22:49.936Z,5096.00
2022-10-22T07:23:50.163Z,5160.00
2022-10-22T07:24:50.461Z,5212.00
2022-10-22T07:25:52.601Z,5224.00
2022-10-22T07:26:50.998Z,5436.00
2022-10-22T07:27:51.346Z,5288.00
2022-10-22T07:28:51.583Z,5348.00
2022-10-22T07:29:51.814Z,5536.00
2022-10-22T07:30:52.168Z,5488.00
2022-10-22T07:31:54.362Z,5480.00
2022-10-22T07:32:52.813Z,5716.00
2022-10-22T07:33:53.049Z,5868.00
2022-10-22T07:34:53.381Z,5744.00
2022-10-22T07:35:55.540Z,5876.00
2022-10-22T07:36:55.696Z,5944.00
2022-10-22T07:37:55.092Z,6124.00
2022-10-22T07:38:55.283Z,6364.00
2022-10-22T07:39:55.657Z,6408.00
2022-10-22T07:40:56.888Z,6620.00
2022-10-22T07:41:57.081Z,6724.00
2022-10-22T07:42:57.277Z,7140.00
2022-10-22T07:43:55.714Z,7408.00
2022-10-22T07:44:55.948Z,7876.00
2022-10-22T07:45:58.120Z,7616.00
2022-10-22T07:46:58.307Z,7404.00
2022-10-22T07:47:58.481Z,7756.00
2022-10-22T07:48:57.059Z,8080.00
2022-10-22T07:49:57.293Z,7756.00
2022-10-22T07:51:00.509Z,8556.00
2022-10-22T07:51:57.872Z,8276.00
2022-10-22T07:52:58.438Z,7516.00
2022-10-22T07:53:58.449Z,7488.00
2022-10-22T07:54:58.724Z,7744.00
2022-10-22T07:56:00.901Z,7780.00
2022-10-22T07:56:59.212Z,7576.00
2022-10-22T07:57:59.477Z,7764.00
2022-10-22T07:58:59.755Z,7960.00
2022-10-22T08:00:00.006Z,7584.00
2022-10-22T08:01:02.252Z,8132.00
2022-10-22T08:02:02.364Z,8076.00
2022-10-22T08:03:00.837Z,8400.00
2022-10-22T08:04:01.085Z,8980.00
2022-10-22T08:05:01.337Z,9032.00
2022-10-22T08:06:03.514Z,9312.00
2022-10-22T08:07:01.845Z,9900.00
2022-10-22T08:08:02.084Z,9876.00
2022-10-22T08:09:02.391Z,10684.00
2022-10-22T08:10:04.515Z,10864.00
2022-10-22T08:11:04.695Z,11520.00
2022-10-22T08:12:04.860Z,12560.00
2022-10-22T08:13:05.549Z,11020.00
2022-10-22T08:14:05.727Z,11896.00
2022-10-22T08:15:05.920Z,12232.00
2022-10-22T08:16:06.127Z,12120.00
2022-10-22T08:17:06.312Z,12352.00
2022-10-22T08:18:05.231Z,13064.00
2022-10-22T08:19:05.321Z,12436.00
2022-10-22T08:20:05.575Z,12932.00
2022-10-22T08:21:07.784Z,13128.00
2022-10-22T08:22:06.087Z,14196.00
2022-10-22T08:23:06.342Z,13724.00
2022-10-22T08:25:08.761Z,13660.00
2022-10-22T08:26:07.112Z,14412.00
2022-10-22T08:27:09.299Z,15120.00
2022-10-22T08:28:09.482Z,15420.00
2022-10-22T08:29:07.932Z,17504.00
2022-10-22T08:30:08.190Z,15164.00
2022-10-22T08:31:10.383Z,14700.00
2022-10-22T08:32:10.567Z,15444.00
2022-10-22T08:33:10.743Z,15092.00
2022-10-22T08:34:10.918Z,15264.00
2022-10-22T08:35:11.130Z,14684.00
2022-10-22T08:36:11.798Z,14972.00
2022-10-22T08:37:10.250Z,15364.00
2022-10-22T08:38:12.428Z,15764.00
2022-10-22T08:39:12.608Z,16088.00
2022-10-22T08:40:12.781Z,16952.00
2022-10-22T08:41:12.943Z,18400.00
2022-10-22T08:42:13.590Z,19296.00
2022-10-22T08:43:13.773Z,19936.00
2022-10-22T08:44:13.969Z,19616.00
2022-10-22T08:45:14.142Z,20928.00
2022-10-22T08:46:16.288Z,19840.00
2022-10-22T08:47:18.645Z,18912.00
2022-10-22T08:48:16.193Z,18272.00
2022-10-22T08:49:13.663Z,19712.00
2022-10-22T08:50:15.845Z,23072.00
2022-10-22T08:51:16.953Z,19936.00
2022-10-22T08:52:16.185Z,22528.00
2022-10-22T08:53:16.343Z,22208.00
2022-10-22T08:54:17.005Z,23040.00
2022-10-22T08:55:15.303Z,23744.00
2022-10-22T08:56:17.483Z,25152.00
2022-10-22T08:57:15.801Z,23360.00
2022-10-22T08:58:17.978Z,23744.00
2022-10-22T08:59:16.310Z,24224.00
2022-10-22T09:00:16.535Z,22752.00
2022-10-22T09:01:16.796Z,24480.00
2022-10-22T09:02:18.988Z,23424.00
2022-10-22T09:03:19.164Z,21408.00
2022-10-22T09:04:17.572Z,23424.00
2022-10-22T09:05:17.809Z,23392.00
2022-10-22T09:06:19.984Z,23712.00
2022-10-22T09:07:18.303Z,25856.00
2022-10-22T09:08:20.548Z,25440.00
2022-10-22T09:09:20.668Z,26880.00
2022-10-22T09:10:21.867Z,24192.00
2022-10-22T09:11:22.093Z,27520.00
2022-10-22T09:12:20.559Z,25696.00
2022-10-22T09:13:19.896Z,25280.00
2022-10-22T09:14:22.079Z,23232.00
2022-10-22T09:15:22.260Z,21440.00
2022-10-22T09:16:20.777Z,21344.00
2022-10-22T09:17:22.866Z,22144.00
2022-10-22T09:18:21.289Z,20992.00
2022-10-22T09:19:21.590Z,21792.00
2022-10-22T09:20:23.772Z,23584.00
2022-10-22T09:21:24.100Z,26496.00
2022-10-22T09:22:22.428Z,25504.00
2022-10-22T09:23:25.592Z,29440.00
2022-10-22T09:24:22.929Z,28320.00
2022-10-22T09:25:25.122Z,28512.00
2022-10-22T09:26:26.787Z,28576.00
2022-10-22T09:27:24.824Z,28160.00
2022-10-22T09:28:24.132Z,26656.00
2022-10-22T09:29:24.409Z,26496.00
2022-10-22T09:30:24.880Z,28096.00
2022-10-22T09:31:28.076Z,29184.00
2022-10-22T09:32:27.216Z,32160.00
2022-10-22T09:33:25.540Z,30496.00
2022-10-22T09:34:25.796Z,30976.00
2022-10-22T09:35:26.035Z,31840.00
2022-10-22T09:36:29.200Z,32416.00
2022-10-22T09:37:27.489Z,33376.00
2022-10-22T09:38:28.693Z,31776.00
2022-10-22T09:39:27.033Z,31552.00
2022-10-22T09:40:27.297Z,31840.00
2022-10-22T09:41:28.358Z,32000.00
2022-10-22T09:42:29.773Z,34176.00
2022-10-22T09:43:28.101Z,33376.00
2022-10-22T09:44:30.283Z,35072.00
2022-10-22T09:45:28.608Z,35456.00
2022-10-22T09:46:31.844Z,34368.00
2022-10-22T09:47:42.509Z,35136.00
2022-10-22T09:48:31.272Z,36768.00
2022-10-22T09:49:29.606Z,35392.00
2022-10-22T09:50:29.840Z,34944.00
2022-10-22T09:51:33.510Z,34816.00
2022-10-22T09:52:32.249Z,38720.00
2022-10-22T09:53:31.564Z,38208.00
2022-10-22T09:54:31.960Z,37888.00
2022-10-22T09:55:32.138Z,33568.00
2022-10-22T09:56:34.494Z,36960.00
2022-10-22T09:57:32.794Z,39040.00
2022-10-22T09:58:34.150Z,38432.00
2022-10-22T09:59:34.237Z,38528.00
2022-10-22T10:00:32.571Z,36416.00
2022-10-22T10:01:33.001Z,38304.00
2022-10-22T10:02:38.610Z,38144.00
2022-10-22T10:03:35.258Z,37184.00
2022-10-22T10:04:33.618Z,36928.00
2022-10-22T10:05:33.857Z,34880.00
2022-10-22T10:06:34.918Z,32704.00
2022-10-22T10:07:34.369Z,33088.00
2022-10-22T10:08:36.603Z,32416.00
2022-10-22T10:09:34.963Z,29472.00
2022-10-22T10:10:35.234Z,31104.00
2022-10-22T10:11:38.898Z,33504.00
2022-10-22T10:12:35.818Z,32576.00
2022-10-22T10:13:36.078Z,34816.00
2022-10-22T10:14:37.227Z,28576.00
2022-10-22T10:15:38.062Z,33728.00
2022-10-22T10:16:37.902Z,32320.00
2022-10-22T10:17:40.308Z,30720.00
2022-10-22T10:18:37.465Z,31264.00
2022-10-22T10:19:37.708Z,24864.00
2022-10-22T10:20:39.880Z,28096.00
2022-10-22T10:21:41.053Z,25280.00
2022-10-22T10:22:40.689Z,29248.00
2022-10-22T10:23:38.790Z,26368.00
2022-10-22T10:24:42.420Z,30976.00
2022-10-22T10:25:42.124Z,33024.00
2022-10-22T10:26:40.676Z,33024.00
2022-10-22T10:27:43.424Z,15552.00
2022-10-22T10:28:41.253Z,34304.00
2022-10-22T10:29:42.445Z,36352.00
2022-10-22T10:30:42.629Z,37856.00
2022-10-22T10:31:43.802Z,38304.00
2022-10-22T10:32:43.502Z,37632.00
2022-10-22T10:33:43.706Z,38016.00
2022-10-22T10:34:42.144Z,38624.00
2022-10-22T10:35:42.388Z,40288.00
2022-10-22T10:36:43.558Z,40864.00
2022-10-22T10:37:44.982Z,40736.00
2022-10-22T10:38:43.501Z,40640.00
2022-10-22T10:39:43.560Z,40736.00
2022-10-22T10:40:45.736Z,40960.00
2022-10-22T10:41:47.401Z,40832.00
2022-10-22T10:42:46.336Z,40512.00
2022-10-22T10:43:46.336Z,39456.00
2022-10-22T10:44:46.492Z,40992.00
2022-10-22T10:45:47.172Z,42208.00
2022-10-22T10:46:48.840Z,42304.00
2022-10-22T10:47:45.800Z,43744.00
2022-10-22T10:48:47.015Z,44032.00
2022-10-22T10:49:47.174Z,43936.00
2022-10-22T10:50:46.609Z,42464.00
2022-10-22T10:51:51.814Z,43328.00
2022-10-22T10:52:47.131Z,42368.00
2022-10-22T10:53:47.391Z,41632.00
2022-10-22T10:54:47.651Z,40256.00
2022-10-22T10:55:48.855Z,39808.00
2022-10-22T10:56:50.995Z,39968.00
2022-10-22T10:57:49.454Z,41088.00
2022-10-22T10:58:50.632Z,41888.00
2022-10-22T10:59:50.837Z,41760.00
2022-10-22T11:00:51.001Z,42656.00
2022-10-22T11:01:53.228Z,42432.00
2022-10-22T11:02:52.916Z,42688.00
2022-10-22T11:03:50.203Z,42976.00
2022-10-22T11:04:50.454Z,41536.00
2022-10-22T11:05:52.643Z,43072.00
2022-10-22T11:06:51.942Z,42752.00
2022-10-22T11:07:55.793Z,43872.00
2022-10-22T11:08:51.592Z,43456.00
2022-10-22T11:09:51.828Z,42688.00
2022-10-22T11:10:53.020Z,42176.00
2022-10-22T11:11:54.279Z,40928.00
2022-10-22T11:12:52.607Z,40064.00
2022-10-22T11:13:54.786Z,39328.00
2022-10-22T11:14:54.939Z,39168.00
2022-10-22T11:15:55.229Z,38144.00
2022-10-22T11:16:55.418Z,37824.00
2022-10-22T11:17:55.527Z,38208.00
2022-10-22T11:18:55.148Z,37696.00
2022-10-22T11:19:59.822Z,38176.00
2022-10-22T11:20:56.693Z,38272.00
2022-10-22T11:21:56.862Z,38656.00
2022-10-22T11:23:18.357Z,32256.00
2022-10-22T11:23:57.477Z,18592.00
2022-10-22T11:24:57.841Z,40192.00
2022-10-22T11:25:58.001Z,41792.00
2022-10-22T11:26:58.469Z,43744.00
2022-10-22T11:28:04.525Z,42176.00
2022-10-22T11:29:00.577Z,39584.00
2022-10-22T11:29:59.281Z,39584.00
2022-10-22T11:30:57.607Z,39264.00
2022-10-22T11:31:59.791Z,40128.00
2022-10-22T11:32:58.121Z,39520.00
2022-10-22T11:34:09.880Z,40384.00
2022-10-22T11:34:59.698Z,40608.00
2022-10-22T11:35:59.011Z,40256.00
2022-10-22T11:37:01.223Z,41984.00
2022-10-22T11:37:59.652Z,41504.00
2022-10-22T11:39:00.663Z,43808.00
2022-10-22T11:39:59.983Z,44736.00
2022-10-22T11:41:00.230Z,44448.00
2022-10-22T11:42:01.900Z,44416.00
2022-10-22T11:43:02.580Z,42816.00
2022-10-22T11:44:01.959Z,41504.00
2022-10-22T11:45:03.196Z,40032.00
2022-10-22T11:46:01.514Z,39136.00
2022-10-22T11:47:03.703Z,36032.00
2022-10-22T11:48:03.883Z,41152.00
2022-10-22T11:49:05.059Z,28320.00
2022-10-22T11:50:04.282Z,32064.00
2022-10-22T11:51:03.871Z,21696.00
2022-10-22T11:52:05.028Z,18368.00
2022-10-22T11:53:05.421Z,17824.00
2022-10-22T11:54:03.723Z,14964.00
2022-10-22T11:55:04.997Z,13116.00
2022-10-22T11:56:07.674Z,13868.00
2022-10-22T11:57:04.628Z,14644.00
2022-10-22T11:58:06.812Z,14660.00
2022-10-22T11:59:06.116Z,15900.00
2022-10-22T12:00:05.412Z,20512.00
2022-10-22T12:01:06.470Z,18656.00
2022-10-22T12:02:07.871Z,21152.00
2022-10-22T12:03:08.037Z,19136.00
2022-10-22T12:04:08.249Z,16076.00
2022-10-22T12:05:06.916Z,15828.00
2022-10-22T12:06:08.038Z,16224.00
2022-10-22T12:07:07.477Z,16744.00
2022-10-22T12:08:08.261Z,17084.00
2022-10-22T12:09:09.975Z,20800.00
2022-10-22T12:10:08.320Z,22720.00
2022-10-22T12:11:09.609Z,22880.00
2022-10-22T12:12:08.905Z,21824.00
2022-10-22T12:13:09.177Z,24032.00
2022-10-22T12:14:11.356Z,19776.00
2022-10-22T12:15:11.556Z,19168.00
2022-10-22T12:16:12.856Z,18304.00
2022-10-22T12:17:12.223Z,18688.00
2022-10-22T12:18:10.575Z,20000.00
2022-10-22T12:19:12.723Z,20128.00
2022-10-22T12:20:11.029Z,20576.00
2022-10-22T12:21:11.311Z,19328.00
2022-10-22T12:22:12.392Z,20256.00
2022-10-22T12:23:11.832Z,19072.00
2022-10-22T12:24:13.999Z,16608.00
2022-10-22T12:25:12.313Z,16148.00
2022-10-22T12:26:15.482Z,18912.00
2022-10-22T12:27:14.668Z,18208.00
2022-10-22T12:28:13.144Z,18080.00
2022-10-22T12:29:16.287Z,17272.00
2022-10-22T12:30:13.624Z,16204.00
2022-10-22T12:31:17.415Z,16492.00
2022-10-22T12:32:17.017Z,15604.00
2022-10-22T12:33:14.348Z,17052.00
2022-10-22T12:34:14.581Z,15972.00
2022-10-22T12:35:14.852Z,16124.00
2022-10-22T12:36:16.164Z,18464.00
2022-10-22T12:37:17.376Z,17664.00
2022-10-22T12:38:15.587Z,17792.00